createdAt,value
2022-08-18T00:00:15.319Z,18.91
2022-08-18T00:05:22.025Z,18.79
2022-08-18T00:10:23.665Z,18.69
2022-08-18T00:15:25.832Z,18.56
2022-08-18T00:20:27.453Z,18.52
2022-08-18T00:25:29.024Z,18.47
2022-08-18T00:30:31.064Z,18.41
2022-08-18T00:35:38.354Z,18.34
2022-08-18T00:40:43.206Z,18.27
2022-08-18T00:45:44.950Z,18.22
2022-08-18T00:50:59.034Z,18.16
2022-08-18T00:56:04.886Z,18.12
2022-08-18T01:01:09.432Z,18.10
2022-08-18T01:06:26.832Z,18.09
2022-08-18T01:11:28.637Z,18.05
2022-08-18T01:16:52.354Z,17.98
2022-08-18T01:22:17.637Z,17.95
2022-08-18T01:27:19.391Z,17.89
2022-08-18T01:32:23.367Z,17.89
2022-08-18T01:37:25.579Z,17.87
2022-08-18T01:42:27.130Z,17.82
2022-08-18T01:47:28.807Z,17.52
2022-08-18T01:52:35.443Z,17.35
2022-08-18T01:57:44.955Z,17.34
2022-08-18T02:02:58.204Z,17.34
2022-08-18T02:08:05.458Z,17.32
2022-08-18T02:13:09.076Z,17.12
2022-08-18T02:18:32.449Z,17.11
2022-08-18T02:23:39.227Z,17.08
2022-08-18T02:28:41.490Z,17.11
2022-08-18T02:33:51.960Z,17.19
2022-08-18T02:38:59.631Z,17.20
2022-08-18T02:44:01.881Z,17.21
2022-08-18T02:49:05.629Z,17.21
2022-08-18T02:54:11.494Z,17.11
2022-08-18T02:59:16.344Z,17.03
2022-08-18T03:04:26.689Z,16.99
2022-08-18T03:09:31.830Z,16.99
2022-08-18T03:14:34.134Z,17.03
2022-08-18T03:19:36.245Z,17.02
2022-08-18T03:24:37.869Z,17.04
2022-08-18T03:29:39.486Z,17.09
2022-08-18T03:34:42.768Z,17.02
2022-08-18T03:39:44.386Z,17.02
2022-08-18T03:44:46.703Z,17.05
2022-08-18T03:49:48.906Z,17.06
2022-08-18T03:54:50.542Z,17.08
2022-08-18T03:59:52.075Z,17.11
2022-08-18T04:04:53.674Z,17.13
2022-08-18T04:09:55.223Z,17.18
2022-08-18T04:14:56.807Z,17.23
2022-08-18T04:19:58.487Z,17.28
2022-08-18T04:25:01.170Z,17.31
2022-08-18T04:30:03.042Z,17.37
2022-08-18T04:35:05.805Z,17.39
2022-08-18T04:40:08.288Z,17.42
2022-08-18T04:45:10.320Z,17.48
2022-08-18T04:50:12.324Z,17.53
2022-08-18T04:55:13.944Z,17.55
2022-08-18T05:00:15.643Z,17.54
2022-08-18T05:05:19.324Z,17.60
2022-08-18T05:10:20.868Z,17.66
2022-08-18T05:15:22.693Z,17.71
2022-08-18T05:20:25.378Z,17.82
2022-08-18T05:25:29.338Z,17.89
2022-08-18T05:30:30.989Z,17.94
2022-08-18T05:35:47.230Z,18.03
2022-08-18T05:41:17.519Z,18.15
2022-08-18T05:46:32.383Z,18.28
2022-08-18T05:51:40.705Z,18.38
2022-08-18T05:56:47.182Z,18.47
2022-08-18T06:01:55.690Z,18.63
2022-08-18T06:07:02.088Z,18.85
2022-08-18T06:12:22.599Z,19.10
2022-08-18T06:18:00.811Z,19.29
2022-08-18T06:23:14.877Z,19.44
2022-08-18T06:28:17.219Z,19.66
2022-08-18T06:33:47.921Z,19.80
2022-08-18T06:39:04.748Z,19.93
2022-08-18T06:44:09.006Z,19.99
2022-08-18T06:49:17.401Z,20.03
2022-08-18T06:54:18.899Z,20.12
2022-08-18T06:59:30.798Z,20.17
2022-08-18T07:04:35.541Z,20.19
2022-08-18T07:09:37.095Z,20.17
2022-08-18T07:14:51.903Z,20.22
2022-08-18T07:20:18.639Z,20.13
2022-08-18T07:25:26.090Z,19.99
2022-08-18T07:30:37.917Z,19.93
2022-08-18T07:35:56.994Z,19.85
2022-08-18T07:41:05.423Z,19.78
2022-08-18T07:46:23.673Z,19.75
2022-08-18T07:51:37.317Z,19.75
2022-08-18T07:57:01.059Z,19.77
2022-08-18T08:02:16.134Z,19.74
2022-08-18T08:07:25.399Z,19.70
2022-08-18T08:13:08.459Z,19.70
2022-08-18T08:18:37.087Z,19.72
2022-08-18T08:23:43.244Z,19.76
2022-08-18T08:29:12.968Z,20.01
2022-08-18T08:34:26.165Z,20.62
2022-08-18T08:39:39.823Z,21.24
2022-08-18T08:44:59.121Z,21.77
2022-08-18T08:50:07.143Z,22.09
2022-08-18T08:55:21.424Z,22.08
2022-08-18T09:00:23.262Z,22.29
2022-08-18T09:05:58.204Z,22.38
2022-08-18T09:11:05.534Z,22.61
2022-08-18T09:16:22.707Z,22.79
2022-08-18T09:21:45.990Z,23.19
2022-08-18T09:27:04.624Z,23.58
2022-08-18T09:32:18.268Z,23.66
2022-08-18T09:37:26.436Z,23.28
2022-08-18T09:42:57.599Z,22.89
2022-08-18T09:48:25.492Z,22.82
2022-08-18T09:53:52.940Z,22.87
2022-08-18T09:59:10.854Z,23.06
2022-08-18T10:04:15.748Z,23.23
2022-08-18T10:09:49.381Z,23.32
2022-08-18T10:15:03.765Z,23.58
2022-08-18T10:20:05.575Z,24.05
2022-08-18T10:25:22.102Z,24.53
2022-08-18T10:30:34.177Z,24.92
2022-08-18T10:35:40.867Z,25.19
2022-08-18T10:40:43.769Z,25.10
2022-08-18T10:46:24.224Z,25.27
2022-08-18T10:52:00.445Z,24.90
2022-08-18T10:57:49.208Z,24.79
2022-08-18T11:03:51.136Z,24.33
2022-08-18T11:09:01.418Z,24.58
2022-08-18T11:14:16.137Z,24.46
2022-08-18T11:19:23.516Z,25.10
2022-08-18T11:24:28.361Z,24.81
2022-08-18T11:29:34.201Z,24.49
2022-08-18T11:34:52.859Z,24.67
2022-08-18T11:40:00.710Z,24.66
2022-08-18T11:45:19.764Z,24.86
2022-08-18T11:50:30.652Z,25.00
2022-08-18T11:55:34.471Z,24.78
2022-08-18T12:00:54.993Z,24.67
2022-08-18T12:11:41.261Z,24.93
2022-08-18T12:16:46.563Z,25.14
2022-08-18T12:21:59.836Z,25.15
2022-08-18T12:27:01.441Z,24.95
2022-08-18T12:32:18.216Z,25.11
2022-08-18T12:38:03.339Z,25.06
2022-08-18T12:48:29.995Z,25.16
2022-08-18T12:53:58.488Z,25.24
2022-08-18T12:58:53.601Z,25.77
2022-08-18T13:04:10.716Z,25.98
2022-08-18T13:09:16.666Z,25.99
2022-08-18T13:14:37.500Z,25.77
2022-08-18T13:19:44.921Z,25.91
2022-08-18T13:24:47.548Z,25.92
2022-08-18T13:29:49.134Z,25.80
2022-08-18T13:34:52.818Z,25.71
2022-08-18T13:39:59.289Z,25.61
2022-08-18T13:45:25.386Z,25.56
2022-08-18T13:50:29.631Z,25.65
2022-08-18T13:55:31.655Z,25.81
2022-08-18T14:00:34.205Z,25.98
2022-08-18T14:05:51.314Z,25.98
2022-08-18T14:10:57.867Z,26.12
2022-08-18T14:16:01.591Z,26.48
2022-08-18T14:21:23.548Z,26.53
2022-08-18T14:26:44.114Z,26.37
2022-08-18T14:31:45.919Z,26.35
2022-08-18T14:36:48.687Z,26.22
2022-08-18T14:42:05.211Z,26.10
2022-08-18T14:47:24.170Z,26.25
2022-08-18T14:52:27.808Z,26.08
2022-08-18T14:57:29.823Z,26.00
2022-08-18T15:02:31.367Z,25.98
2022-08-18T15:07:37.805Z,25.99
2022-08-18T15:12:43.831Z,25.99
2022-08-18T15:17:50.043Z,25.94
2022-08-18T15:23:12.967Z,25.95
2022-08-18T15:28:17.587Z,26.07
2022-08-18T15:33:25.290Z,26.01
2022-08-18T15:38:32.798Z,25.81
2022-08-18T15:43:34.423Z,25.75
2022-08-18T15:48:47.733Z,25.65
2022-08-18T15:53:49.334Z,25.64
2022-08-18T15:58:51.907Z,25.66
2022-08-18T16:03:55.260Z,25.51
2022-08-18T16:08:56.976Z,25.54
2022-08-18T16:13:59.134Z,25.47
2022-08-18T16:19:03.955Z,25.33
2022-08-18T16:24:07.069Z,25.32
2022-08-18T16:29:08.611Z,25.12
2022-08-18T16:34:10.161Z,25.03
2022-08-18T16:39:11.707Z,24.97
2022-08-18T16:44:15.967Z,24.87
2022-08-18T16:49:19.943Z,24.86
2022-08-18T16:54:22.229Z,24.64
2022-08-18T16:59:42.724Z,24.44
2022-08-18T17:04:44.280Z,24.29
2022-08-18T17:15:49.862Z,24.03
2022-08-18T17:20:52.316Z,23.92
2022-08-18T17:25:57.516Z,23.83
2022-08-18T17:30:59.281Z,23.73
2022-08-18T17:36:08.524Z,23.68
2022-08-18T17:41:12.616Z,23.58
2022-08-18T17:46:14.123Z,23.49
2022-08-18T17:51:34.665Z,23.41
2022-08-18T17:56:42.518Z,23.31
2022-08-18T18:01:44.082Z,23.20
2022-08-18T18:06:48.224Z,23.08
2022-08-18T18:11:51.191Z,22.97
2022-08-18T18:17:16.902Z,22.86
2022-08-18T18:22:25.654Z,22.70
2022-08-18T18:27:40.680Z,22.54
2022-08-18T18:32:59.101Z,22.38
2022-08-18T18:38:22.570Z,22.19
2022-08-18T18:43:29.068Z,21.96
2022-08-18T18:48:51.817Z,21.82
2022-08-18T18:54:24.490Z,21.66
2022-08-18T18:59:45.238Z,21.54
2022-08-18T19:04:55.118Z,21.44
2022-08-18T19:10:08.028Z,21.30
2022-08-18T19:15:15.949Z,21.12
2022-08-18T19:20:43.631Z,20.96
2022-08-18T19:26:09.750Z,20.81
2022-08-18T19:31:23.172Z,20.69
2022-08-18T19:36:41.654Z,20.57
2022-08-18T19:41:58.061Z,20.45
2022-08-18T19:47:15.720Z,20.35
2022-08-18T19:53:00.969Z,20.28
2022-08-18T19:58:32.015Z,20.21
2022-08-18T20:03:52.451Z,20.11
2022-08-18T20:09:13.571Z,20.05
2022-08-18T20:14:20.852Z,19.97
2022-08-18T20:20:01.112Z,19.90
2022-08-18T20:25:18.024Z,19.83
2022-08-18T20:30:19.605Z,19.79
2022-08-18T20:35:33.908Z,19.77
2022-08-18T20:40:41.443Z,19.79
2022-08-18T20:45:46.105Z,19.79
2022-08-18T20:50:59.656Z,19.74
2022-08-18T20:56:32.539Z,19.69
2022-08-18T21:01:35.759Z,19.60
2022-08-18T21:06:42.057Z,19.58
2022-08-18T21:11:48.140Z,19.61
2022-08-18T21:16:49.720Z,19.61
2022-08-18T21:21:55.014Z,19.57
2022-08-18T21:26:59.362Z,19.54
2022-08-18T21:32:12.010Z,19.51
2022-08-18T21:37:18.002Z,19.46
2022-08-18T21:42:40.471Z,19.42
2022-08-18T21:47:49.590Z,19.35
2022-08-18T21:52:57.599Z,19.32
2022-08-18T21:58:04.616Z,19.30
2022-08-18T22:03:23.088Z,19.26
2022-08-18T22:08:26.820Z,19.22
2022-08-18T22:13:48.119Z,19.20
2022-08-18T22:18:49.861Z,19.18
2022-08-18T22:24:10.690Z,19.20
2022-08-18T22:29:16.734Z,19.19
2022-08-18T22:34:27.811Z,19.17
2022-08-18T22:39:37.634Z,19.17
2022-08-18T22:44:41.675Z,19.15
2022-08-18T22:49:45.225Z,19.13
2022-08-18T22:54:46.858Z,19.08
2022-08-18T22:59:52.432Z,19.06
2022-08-18T23:04:54.209Z,19.03
2022-08-18T23:09:55.835Z,19.01
2022-08-18T23:14:57.398Z,19.02
2022-08-18T23:19:58.943Z,19.00
2022-08-18T23:25:08.832Z,18.98
2022-08-18T23:30:11.712Z,18.97
2022-08-18T23:35:15.248Z,18.93
2022-08-18T23:40:17.626Z,18.89
2022-08-18T23:45:19.544Z,18.86
2022-08-18T23:50:24.378Z,18.81
2022-08-18T23:55:29.543Z,18.76
